sensor_id;sensor_type;location;lat;lon;timestamp;pressure;altitude;pressure_sealevel;temperature;humidity
58775;BME280;44545;47.480;19.024;2023-10-31T04:22:45;99071.78;;;12.96;100.00
58775;BME280;44545;47.480;19.024;2023-10-31T04:25:48;99071.78;;;12.96;100.00
58775;BME280;44545;47.480;19.024;2023-10-31T04:28:50;99074.97;;;12.48;100.00
58775;BME280;44545;47.480;19.024;2023-10-31T04:31:52;99065.44;;;12.50;100.00
58775;BME280;44545;47.480;19.024;2023-10-31T04:34:55;99043.97;;;12.63;100.00
58775;BME280;44545;47.480;19.024;2023-10-31T04:37:58;99054.16;;;12.51;100.00
58775;BME280;44545;47.480;19.024;2023-10-31T04:41:00;99046.56;;;12.62;100.00
58775;BME280;44545;47.480;19.024;2023-10-31T04:44:03;99043.75;;;12.54;100.00
58775;BME280;44545;47.480;19.024;2023-10-31T04:47:05;99051.59;;;12.54;100.00
58775;BME280;44545;47.480;19.024;2023-10-31T04:50:09;99035.06;;;12.55;100.00
58775;BME280;44545;47.480;19.024;2023-10-31T04:53:12;99031.81;;;12.65;100.00
58775;BME280;44545;47.480;19.024;2023-10-31T04:56:15;99031.00;;;12.31;100.00
58775;BME280;44545;47.480;19.024;2023-10-31T04:59:18;99027.06;;;12.49;100.00
58775;BME280;44545;47.480;19.024;2023-10-31T05:02:23;99022.03;;;12.56;100.00
58775;BME280;44545;47.480;19.024;2023-10-31T05:05:25;99012.81;;;12.72;100.00
58775;BME280;44545;47.480;19.024;2023-10-31T05:08:28;99005.84;;;12.71;100.00
58775;BME280;44545;47.480;19.024;2023-10-31T05:11:30;99001.13;;;12.56;100.00
58775;BME280;44545;47.480;19.024;2023-10-31T05:14:33;98995.00;;;12.56;100.00
58775;BME280;44545;47.480;19.024;2023-10-31T05:17:35;98993.22;;;12.55;100.00
58775;BME280;44545;47.480;19.024;2023-10-31T05:20:37;98981.25;;;12.65;100.00
58775;BME280;44545;47.480;19.024;2023-10-31T05:23:39;98983.75;;;12.58;100.00
58775;BME280;44545;47.480;19.024;2023-10-31T05:26:43;98985.44;;;12.56;100.00
58775;BME280;44545;47.480;19.024;2023-10-31T05:29:45;98998.00;;;12.73;100.00
58775;BME280;44545;47.480;19.024;2023-10-31T05:32:49;99020.91;;;12.83;100.00
58775;BME280;44545;47.480;19.024;2023-10-31T05:35:51;99032.28;;;12.85;100.00
58775;BME280;44545;47.480;19.024;2023-10-31T05:38:54;99052.47;;;12.89;100.00
58775;BME280;44545;47.480;19.024;2023-10-31T05:41:56;99052.47;;;12.91;100.00
58775;BME280;44545;47.480;19.024;2023-10-31T05:44:59;99033.22;;;12.87;100.00
58775;BME280;44545;47.480;19.024;2023-10-31T05:48:01;99034.63;;;12.73;100.00
58775;BME280;44545;47.480;19.024;2023-10-31T05:51:05;99013.44;;;12.62;100.00
58775;BME280;44545;47.480;19.024;2023-10-31T05:54:12;99025.75;;;12.66;100.00
58775;BME280;44545;47.480;19.024;2023-10-31T05:57:14;99027.47;;;12.66;100.00
58775;BME280;44545;47.480;19.024;2023-10-31T06:00:17;99013.69;;;12.73;100.00
58775;BME280;44545;47.480;19.024;2023-10-31T06:03:19;99016.31;;;12.73;100.00
58775;BME280;44545;47.480;19.024;2023-10-31T06:06:22;99025.19;;;12.79;100.00
58775;BME280;44545;47.480;19.024;2023-10-31T06:09:24;99006.94;;;12.83;100.00
58775;BME280;44545;47.480;19.024;2023-10-31T06:12:26;99001.59;;;12.76;100.00
58775;BME280;44545;47.480;19.024;2023-10-31T06:15:30;98982.31;;;12.73;100.00
58775;BME280;44545;47.480;19.024;2023-10-31T06:18:33;98988.59;;;12.81;100.00
58775;BME280;44545;47.480;19.024;2023-10-31T06:21:35;99011.88;;;12.69;100.00
58775;BME280;44545;47.480;19.024;2023-10-31T06:24:38;99018.16;;;12.77;100.00
58775;BME280;44545;47.480;19.024;2023-10-31T06:27:40;99012.41;;;12.92;100.00
58775;BME280;44545;47.480;19.024;2023-10-31T06:30:43;99009.91;;;12.98;100.00
58775;BME280;44545;47.480;19.024;2023-10-31T06:33:45;99014.75;;;12.81;100.00
58775;BME280;44545;47.480;19.024;2023-10-31T06:36:48;99019.38;;;12.93;100.00
58775;BME280;44545;47.480;19.024;2023-10-31T06:39:50;99013.72;;;13.12;100.00
58775;BME280;44545;47.480;19.024;2023-10-31T06:42:53;98997.88;;;13.06;100.00
58775;BME280;44545;47.480;19.024;2023-10-31T06:45:56;98999.09;;;13.22;100.00
58775;BME280;44545;47.480;19.024;2023-10-31T06:48:59;98992.91;;;13.17;100.00
58775;BME280;44545;47.480;19.024;2023-10-31T06:52:01;99008.25;;;13.41;100.00
58775;BME280;44545;47.480;19.024;2023-10-31T06:55:04;99011.06;;;13.09;100.00
58775;BME280;44545;47.480;19.024;2023-10-31T06:58:07;99024.78;;;12.99;100.00
58775;BME280;44545;47.480;19.024;2023-10-31T07:01:09;99018.72;;;13.39;100.00
58775;BME280;44545;47.480;19.024;2023-10-31T07:04:12;99022.94;;;13.33;100.00
58775;BME280;44545;47.480;19.024;2023-10-31T07:07:15;99015.19;;;13.39;100.00
58775;BME280;44545;47.480;19.024;2023-10-31T07:10:18;99015.28;;;13.43;100.00
58775;BME280;44545;47.480;19.024;2023-10-31T07:13:20;99007.47;;;13.45;100.00
58775;BME280;44545;47.480;19.024;2023-10-31T07:16:22;99007.88;;;13.65;100.00
58775;BME280;44545;47.480;19.024;2023-10-31T07:19:25;99010.94;;;13.88;100.00
58775;BME280;44545;47.480;19.024;2023-10-31T07:22:27;99011.19;;;14.02;100.00
58775;BME280;44545;47.480;19.024;2023-10-31T07:25:29;99011.53;;;14.22;100.00
58775;BME280;44545;47.480;19.024;2023-10-31T07:28:32;99013.28;;;14.21;100.00
58775;BME280;44545;47.480;19.024;2023-10-31T07:31:34;99007.22;;;14.24;100.00
58775;BME280;44545;47.480;19.024;2023-10-31T07:34:41;99008.97;;;14.25;100.00
58775;BME280;44545;47.480;19.024;2023-10-31T07:37:47;99009.38;;;14.49;100.00
58775;BME280;44545;47.480;19.024;2023-10-31T07:40:49;99012.38;;;14.71;100.00
58775;BME280;44545;47.480;19.024;2023-10-31T07:43:52;99002.94;;;14.82;100.00
58775;BME280;44545;47.480;19.024;2023-10-31T07:46:54;99007.09;;;14.66;100.00
58775;BME280;44545;47.480;19.024;2023-10-31T07:49:56;99006.22;;;14.67;100.00
58775;BME280;44545;47.480;19.024;2023-10-31T07:52:59;99008.38;;;14.96;100.00
58775;BME280;44545;47.480;19.024;2023-10-31T07:56:02;98999.03;;;15.15;100.00
58775;BME280;44545;47.480;19.024;2023-10-31T07:59:04;98994.00;;;15.33;100.00
58775;BME280;44545;47.480;19.024;2023-10-31T08:02:07;98996.84;;;15.52;100.00
58775;BME280;44545;47.480;19.024;2023-10-31T08:05:10;98979.84;;;15.94;100.00
58775;BME280;44545;47.480;19.024;2023-10-31T08:08:12;98976.69;;;16.29;100.00
58775;BME280;44545;47.480;19.024;2023-10-31T08:11:15;98969.81;;;16.49;100.00
58775;BME280;44545;47.480;19.024;2023-10-31T08:14:17;98974.31;;;16.64;100.00
58775;BME280;44545;47.480;19.024;2023-10-31T08:17:20;98990.16;;;16.68;100.00
58775;BME280;44545;47.480;19.024;2023-10-31T08:20:22;98981.22;;;16.50;100.00
58775;BME280;44545;47.480;19.024;2023-10-31T08:23:25;98975.13;;;16.54;100.00
58775;BME280;44545;47.480;19.024;2023-10-31T08:26:28;98983.88;;;16.51;100.00
58775;BME280;44545;47.480;19.024;2023-10-31T08:29:30;98979.56;;;16.62;100.00
58775;BME280;44545;47.480;19.024;2023-10-31T08:32:32;98978.56;;;16.46;100.00
58775;BME280;44545;47.480;19.024;2023-10-31T08:35:35;98996.94;;;16.40;100.00
58775;BME280;44545;47.480;19.024;2023-10-31T08:38:37;98976.91;;;16.59;100.00
58775;BME280;44545;47.480;19.024;2023-10-31T08:41:53;98977.13;;;16.85;100.00
58775;BME280;44545;47.480;19.024;2023-10-31T08:44:55;98971.75;;;16.75;100.00
58775;BME280;44545;47.480;19.024;2023-10-31T08:47:58;98964.00;;;16.90;100.00
58775;BME280;44545;47.480;19.024;2023-10-31T08:51:00;98957.97;;;17.12;100.00
58775;BME280;44545;47.480;19.024;2023-10-31T08:54:03;98957.19;;;17.35;100.00
58775;BME280;44545;47.480;19.024;2023-10-31T08:57:05;98952.84;;;17.49;99.55
58775;BME280;44545;47.480;19.024;2023-10-31T09:00:08;98953.72;;;17.47;100.00
58775;BME280;44545;47.480;19.024;2023-10-31T09:03:10;98952.91;;;17.68;99.77
58775;BME280;44545;47.480;19.024;2023-10-31T09:06:14;98940.69;;;17.91;95.42
58775;BME280;44545;47.480;19.024;2023-10-31T09:09:16;98940.63;;;17.76;96.69
58775;BME280;44545;47.480;19.024;2023-10-31T09:12:18;98937.16;;;18.08;91.87
58775;BME280;44545;47.480;19.024;2023-10-31T09:15:21;98936.28;;;18.38;92.68
58775;BME280;44545;47.480;19.024;2023-10-31T09:18:23;98933.66;;;18.61;87.77
58775;BME280;44545;47.480;19.024;2023-10-31T09:21:26;98931.88;;;18.75;89.10
58775;BME280;44545;47.480;19.024;2023-10-31T09:24:28;98917.81;;;18.50;84.77
58775;BME280;44545;47.480;19.024;2023-10-31T09:27:30;98919.59;;;18.47;83.13
58775;BME280;44545;47.480;19.024;2023-10-31T09:30:33;98912.56;;;18.29;84.13
58775;BME280;44545;47.480;19.024;2023-10-31T09:33:35;98909.06;;;18.16;90.93
58775;BME280;44545;47.480;19.024;2023-10-31T09:36:39;98887.94;;;18.16;92.19
58775;BME280;44545;47.480;19.024;2023-10-31T09:39:43;98890.56;;;18.36;95.62
58775;BME280;44545;47.480;19.024;2023-10-31T09:42:47;98878.25;;;18.44;88.90
58775;BME280;44545;47.480;19.024;2023-10-31T09:45:49;98887.03;;;18.43;83.85
58775;BME280;44545;47.480;19.024;2023-10-31T09:48:52;98894.97;;;18.32;86.05
58775;BME280;44545;47.480;19.024;2023-10-31T09:51:54;98876.47;;;18.54;84.36
58775;BME280;44545;47.480;19.024;2023-10-31T09:54:57;98882.59;;;18.65;82.62
58775;BME280;44545;47.480;19.024;2023-10-31T09:58:00;98882.56;;;18.68;82.12
58775;BME280;44545;47.480;19.024;2023-10-31T10:01:03;98877.28;;;18.80;81.11
58775;BME280;44545;47.480;19.024;2023-10-31T10:04:06;98878.19;;;18.82;78.31
58775;BME280;44545;47.480;19.024;2023-10-31T10:07:13;98857.06;;;18.69;81.99
58775;BME280;44545;47.480;19.024;2023-10-31T10:10:17;98841.13;;;19.01;77.21
58775;BME280;44545;47.480;19.024;2023-10-31T10:13:22;98833.25;;;18.89;77.37
58775;BME280;44545;47.480;19.024;2023-10-31T10:16:31;98814.72;;;18.99;75.82
58775;BME280;44545;47.480;19.024;2023-10-31T10:19:34;98810.38;;;18.88;79.45
58775;BME280;44545;47.480;19.024;2023-10-31T10:25:42;98803.16;;;19.16;74.25
58775;BME280;44545;47.480;19.024;2023-10-31T10:28:46;98790.78;;;19.27;73.06
58775;BME280;44545;47.480;19.024;2023-10-31T10:31:50;98773.97;;;19.34;76.01
58775;BME280;44545;47.480;19.024;2023-10-31T10:34:52;98781.69;;;19.62;73.69
58775;BME280;44545;47.480;19.024;2023-10-31T10:37:56;98783.13;;;20.04;67.82
58775;BME280;44545;47.480;19.024;2023-10-31T10:41:01;98748.56;;;20.20;69.27
58775;BME280;44545;47.480;19.024;2023-10-31T10:44:05;98752.06;;;20.23;67.49
58775;BME280;44545;47.480;19.024;2023-10-31T10:47:11;98758.31;;;20.14;65.80
58775;BME280;44545;47.480;19.024;2023-10-31T10:50:14;98756.25;;;20.44;66.67
58775;BME280;44545;47.480;19.024;2023-10-31T10:53:23;98765.84;;;20.53;62.38
58775;BME280;44545;47.480;19.024;2023-10-31T10:56:34;98723.69;;;20.36;63.90
58775;BME280;44545;47.480;19.024;2023-10-31T10:59:49;98712.37;;;20.20;64.37
58775;BME280;44545;47.480;19.024;2023-10-31T11:02:56;98713.63;;;19.87;62.92
58775;BME280;44545;47.480;19.024;2023-10-31T11:05:59;98699.53;;;19.85;64.36
58775;BME280;44545;47.480;19.024;2023-10-31T11:09:02;98684.44;;;19.95;64.05
58775;BME280;44545;47.480;19.024;2023-10-31T11:12:06;98668.19;;;20.27;65.59
58775;BME280;44545;47.480;19.024;2023-10-31T11:15:11;98671.28;;;20.64;62.94
58775;BME280;44545;47.480;19.024;2023-10-31T11:18:16;98674.16;;;20.43;63.54
58775;BME280;44545;47.480;19.024;2023-10-31T11:21:22;98657.94;;;19.98;65.15
58775;BME280;44545;47.480;19.024;2023-10-31T11:24:36;98675.16;;;19.49;62.48
58775;BME280;44545;47.480;19.024;2023-10-31T11:27:39;98667.56;;;19.11;64.61
58775;BME280;44545;47.480;19.024;2023-10-31T11:30:45;98672.28;;;18.58;68.27
58775;BME280;44545;47.480;19.024;2023-10-31T11:33:51;98673.13;;;18.69;72.99
58775;BME280;44545;47.480;19.024;2023-10-31T11:37:26;98674.09;;;18.51;73.37
58775;BME280;44545;47.480;19.024;2023-10-31T11:40:29;98644.22;;;18.41;73.48
58775;BME280;44545;47.480;19.024;2023-10-31T11:46:42;98582.59;;;18.46;81.45
58775;BME280;44545;47.480;19.024;2023-10-31T11:49:45;98600.88;;;18.81;79.92
58775;BME280;44545;47.480;19.024;2023-10-31T11:53:05;98602.66;;;18.73;75.57
58775;BME280;44545;47.480;19.024;2023-10-31T11:56:10;98609.84;;;18.51;74.71
58775;BME280;44545;47.480;19.024;2023-10-31T11:59:16;98610.00;;;18.31;83.32
58775;BME280;44545;47.480;19.024;2023-10-31T12:02:22;98600.41;;;18.11;90.01
58775;BME280;44545;47.480;19.024;2023-10-31T12:05:25;98603.97;;;18.06;97.28
58775;BME280;44545;47.480;19.024;2023-10-31T12:08:30;98597.03;;;17.66;99.34
58775;BME280;44545;47.480;19.024;2023-10-31T12:11:44;98582.06;;;17.76;98.71
58775;BME280;44545;47.480;19.024;2023-10-31T12:14:47;98568.06;;;17.55;100.00
58775;BME280;44545;47.480;19.024;2023-10-31T12:17:50;98574.19;;;17.59;100.00
58775;BME280;44545;47.480;19.024;2023-10-31T12:20:53;98588.31;;;17.38;100.00
58775;BME280;44545;47.480;19.024;2023-10-31T12:24:03;98604.09;;;17.37;100.00
58775;BME280;44545;47.480;19.024;2023-10-31T12:27:06;98670.00;;;17.14;100.00
58775;BME280;44545;47.480;19.024;2023-10-31T12:30:10;98851.56;;;16.74;100.00
58775;BME280;44545;47.480;19.024;2023-10-31T12:33:13;98882.59;;;15.13;100.00
58775;BME280;44545;47.480;19.024;2023-10-31T12:36:15;98943.66;;;14.39;100.00
58775;BME280;44545;47.480;19.024;2023-10-31T12:39:22;98909.78;;;13.49;100.00
58775;BME280;44545;47.480;19.024;2023-10-31T12:42:25;98908.25;;;13.60;100.00
58775;BME280;44545;47.480;19.024;2023-10-31T12:45:32;98874.53;;;13.32;100.00
58775;BME280;44545;47.480;19.024;2023-10-31T12:48:37;98856.16;;;13.27;100.00
58775;BME280;44545;47.480;19.024;2023-10-31T12:51:55;98868.75;;;13.04;100.00
58775;BME280;44545;47.480;19.024;2023-10-31T12:54:57;98856.81;;;13.18;100.00
58775;BME280;44545;47.480;19.024;2023-10-31T12:57:59;98832.09;;;13.48;100.00
58775;BME280;44545;47.480;19.024;2023-10-31T13:01:10;98835.50;;;13.44;100.00
58775;BME280;44545;47.480;19.024;2023-10-31T13:04:24;98844.13;;;13.37;100.00
58775;BME280;44545;47.480;19.024;2023-10-31T13:07:28;98851.59;;;13.65;100.00
58775;BME280;44545;47.480;19.024;2023-10-31T13:10:31;98880.91;;;13.44;100.00
58775;BME280;44545;47.480;19.024;2023-10-31T13:13:38;98900.66;;;13.27;100.00
58775;BME280;44545;47.480;19.024;2023-10-31T13:16:40;98913.16;;;13.43;100.00
58775;BME280;44545;47.480;19.024;2023-10-31T13:19:42;98877.31;;;13.39;100.00
58775;BME280;44545;47.480;19.024;2023-10-31T13:22:45;98861.19;;;13.66;100.00
58775;BME280;44545;47.480;19.024;2023-10-31T13:25:48;98856.56;;;13.50;100.00
58775;BME280;44545;47.480;19.024;2023-10-31T13:28:50;98874.03;;;13.50;100.00
58775;BME280;44545;47.480;19.024;2023-10-31T13:31:53;98876.38;;;13.36;100.00
58775;BME280;44545;47.480;19.024;2023-10-31T13:34:55;98908.22;;;13.16;100.00
58775;BME280;44545;47.480;19.024;2023-10-31T13:37:58;98942.53;;;12.88;100.00
58775;BME280;44545;47.480;19.024;2023-10-31T13:41:00;98968.69;;;12.88;100.00
58775;BME280;44545;47.480;19.024;2023-10-31T13:44:03;98981.50;;;12.75;100.00
58775;BME280;44545;47.480;19.024;2023-10-31T13:47:06;98988.34;;;12.70;100.00
58775;BME280;44545;47.480;19.024;2023-10-31T13:50:09;99012.28;;;12.49;100.00
58775;BME280;44545;47.480;19.024;2023-10-31T13:53:11;98998.56;;;12.23;100.00
58775;BME280;44545;47.480;19.024;2023-10-31T13:56:14;98979.41;;;12.24;100.00
58775;BME280;44545;47.480;19.024;2023-10-31T13:59:16;98953.47;;;12.32;100.00
58775;BME280;44545;47.480;19.024;2023-10-31T14:02:20;98916.44;;;12.15;100.00
58775;BME280;44545;47.480;19.024;2023-10-31T14:05:23;98899.50;;;11.98;100.00
58775;BME280;44545;47.480;19.024;2023-10-31T14:08:25;98856.72;;;11.94;100.00
58775;BME280;44545;47.480;19.024;2023-10-31T14:11:28;98832.59;;;12.04;100.00
58775;BME280;44545;47.480;19.024;2023-10-31T14:14:30;98757.84;;;12.11;100.00
58775;BME280;44545;47.480;19.024;2023-10-31T14:17:33;98719.97;;;11.92;100.00
58775;BME280;44545;47.480;19.024;2023-10-31T14:20:35;98760.66;;;11.82;100.00
58775;BME280;44545;47.480;19.024;2023-10-31T14:23:38;98758.78;;;11.77;100.00
58775;BME280;44545;47.480;19.024;2023-10-31T14:26:40;98758.87;;;11.81;100.00
58775;BME280;44545;47.480;19.024;2023-10-31T14:29:45;98750.94;;;11.75;100.00
58775;BME280;44545;47.480;19.024;2023-10-31T14:32:47;98791.03;;;11.79;100.00
58775;BME280;44545;47.480;19.024;2023-10-31T14:35:50;98818.44;;;11.60;100.00
58775;BME280;44545;47.480;19.024;2023-10-31T14:38:52;98799.94;;;11.50;100.00
58775;BME280;44545;47.480;19.024;2023-10-31T14:41:55;98808.31;;;11.39;100.00
58775;BME280;44545;47.480;19.024;2023-10-31T14:44:57;98819.00;;;11.48;100.00
58775;BME280;44545;47.480;19.024;2023-10-31T14:47:59;98809.50;;;11.50;100.00
58775;BME280;44545;47.480;19.024;2023-10-31T14:51:02;98812.91;;;11.47;100.00
58775;BME280;44545;47.480;19.024;2023-10-31T14:54:05;98819.66;;;11.39;100.00
58775;BME280;44545;47.480;19.024;2023-10-31T14:57:07;98828.25;;;11.35;100.00
58775;BME280;44545;47.480;19.024;2023-10-31T15:00:10;98847.72;;;11.48;100.00
58775;BME280;44545;47.480;19.024;2023-10-31T15:03:14;98884.88;;;11.38;100.00
58775;BME280;44545;47.480;19.024;2023-10-31T15:06:16;98909.69;;;11.55;100.00
58775;BME280;44545;47.480;19.024;2023-10-31T15:09:19;98929.97;;;11.65;100.00
58775;BME280;44545;47.480;19.024;2023-10-31T15:12:21;98950.50;;;11.85;100.00
58775;BME280;44545;47.480;19.024;2023-10-31T15:15:24;98955.88;;;11.89;100.00
58775;BME280;44545;47.480;19.024;2023-10-31T15:18:26;98989.28;;;12.01;100.00
58775;BME280;44545;47.480;19.024;2023-10-31T15:21:29;99003.75;;;11.88;100.00
58775;BME280;44545;47.480;19.024;2023-10-31T15:24:31;98997.25;;;12.06;100.00
58775;BME280;44545;47.480;19.024;2023-10-31T15:27:36;99011.44;;;12.16;100.00
58775;BME280;44545;47.480;19.024;2023-10-31T15:30:38;99018.22;;;12.09;100.00
58775;BME280;44545;47.480;19.024;2023-10-31T15:33:40;99030.00;;;12.28;100.00
58775;BME280;44545;47.480;19.024;2023-10-31T15:36:45;99039.84;;;12.36;100.00
58775;BME280;44545;47.480;19.024;2023-10-31T15:39:47;99057.53;;;12.47;100.00
58775;BME280;44545;47.480;19.024;2023-10-31T15:42:51;99056.41;;;12.37;100.00
58775;BME280;44545;47.480;19.024;2023-10-31T15:45:53;99050.97;;;12.29;100.00
58775;BME280;44545;47.480;19.024;2023-10-31T15:48:55;99055.53;;;12.03;100.00
58775;BME280;44545;47.480;19.024;2023-10-31T15:51:58;99052.62;;;11.92;100.00
58775;BME280;44545;47.480;19.024;2023-10-31T15:55:00;99053.03;;;12.08;100.00
58775;BME280;44545;47.480;19.024;2023-10-31T15:58:02;99053.44;;;11.91;100.00
58775;BME280;44545;47.480;19.024;2023-10-31T16:01:05;99057.75;;;11.89;100.00
58775;BME280;44545;47.480;19.024;2023-10-31T16:04:08;99059.06;;;11.75;100.00
58775;BME280;44545;47.480;19.024;2023-10-31T16:07:11;99063.81;;;11.88;100.00
58775;BME280;44545;47.480;19.024;2023-10-31T16:10:14;99066.44;;;11.88;100.00
58775;BME280;44545;47.480;19.024;2023-10-31T16:13:16;99067.56;;;11.68;100.00
58775;BME280;44545;47.480;19.024;2023-10-31T16:16:19;99068.72;;;11.78;100.00
58775;BME280;44545;47.480;19.024;2023-10-31T16:19:21;99071.34;;;11.78;100.00
